createdAt,value
2022-10-06T00:00:34.222Z,3.00
2022-10-06T00:03:00.670Z,4.43
2022-10-06T00:05:27.157Z,3.30
2022-10-06T00:07:53.519Z,3.50
2022-10-06T00:10:19.787Z,3.30
2022-10-06T00:12:47.338Z,4.75
2022-10-06T00:15:14.743Z,3.75
2022-10-06T00:17:41.362Z,4.15
2022-10-06T00:20:08.713Z,4.32
2022-10-06T00:22:35.812Z,3.40
2022-10-06T00:25:02.312Z,3.28
2022-10-06T00:27:36.009Z,3.70
2022-10-06T00:30:06.109Z,3.60
2022-10-06T00:32:32.626Z,4.80
2022-10-06T00:34:59.498Z,3.67
2022-10-06T00:37:29.667Z,4.80
2022-10-06T00:39:55.935Z,3.25
2022-10-06T00:42:28.365Z,3.55
2022-10-06T00:44:54.956Z,4.32
2022-10-06T00:47:22.808Z,4.55
2022-10-06T00:49:49.096Z,5.00
2022-10-06T00:52:20.016Z,3.63
2022-10-06T00:54:46.376Z,3.22
2022-10-06T00:57:12.641Z,3.58
2022-10-06T00:59:39.376Z,4.07
2022-10-06T01:02:08.975Z,5.13
2022-10-06T01:04:36.777Z,4.65
2022-10-06T01:07:03.503Z,4.95
2022-10-06T01:09:30.722Z,4.35
2022-10-06T01:11:59.133Z,4.57
2022-10-06T01:14:26.029Z,5.07
2022-10-06T01:16:58.311Z,4.38
2022-10-06T01:19:36.970Z,4.65
2022-10-06T01:22:05.786Z,6.15
2022-10-06T01:24:32.508Z,4.97
2022-10-06T01:26:59.285Z,4.50
2022-10-06T01:29:25.627Z,3.60
2022-10-06T01:31:51.902Z,4.68
2022-10-06T01:34:18.223Z,4.03
2022-10-06T01:36:44.527Z,3.92
2022-10-06T01:39:10.800Z,4.80
2022-10-06T01:41:37.096Z,4.18
2022-10-06T01:44:03.403Z,3.95
2022-10-06T01:46:30.504Z,3.55
2022-10-06T01:48:56.862Z,4.57
2022-10-06T01:51:23.123Z,3.47
2022-10-06T01:53:49.400Z,4.35
2022-10-06T01:56:15.758Z,2.78
2022-10-06T01:58:42.058Z,5.18
2022-10-06T02:01:09.083Z,4.35
2022-10-06T02:03:35.825Z,3.80
2022-10-06T02:06:02.473Z,3.75
2022-10-06T02:08:29.236Z,4.00
2022-10-06T02:10:55.939Z,4.03
2022-10-06T02:13:26.311Z,3.90
2022-10-06T02:15:55.402Z,4.45
2022-10-06T02:18:21.716Z,4.38
2022-10-06T02:20:48.202Z,4.18
2022-10-06T02:23:14.495Z,3.55
2022-10-06T02:25:40.765Z,3.63
2022-10-06T02:28:07.112Z,3.88
2022-10-06T02:30:33.682Z,4.15
2022-10-06T02:32:59.941Z,4.13
2022-10-06T02:35:26.556Z,3.58
2022-10-06T02:37:52.888Z,3.83
2022-10-06T02:40:19.169Z,4.60
2022-10-06T02:42:45.758Z,3.50
2022-10-06T02:45:12.411Z,4.03
2022-10-06T02:47:38.655Z,3.60
2022-10-06T02:50:07.371Z,3.72
2022-10-06T02:52:37.927Z,4.05
2022-10-06T02:55:04.950Z,4.22
2022-10-06T02:57:31.307Z,4.03
2022-10-06T02:59:57.761Z,3.42
2022-10-06T03:02:24.103Z,3.80
2022-10-06T03:04:50.555Z,3.88
2022-10-06T03:07:16.880Z,3.45
2022-10-06T03:09:43.156Z,4.38
2022-10-06T03:12:09.499Z,4.70
2022-10-06T03:14:35.759Z,3.60
2022-10-06T03:17:02.038Z,3.63
2022-10-06T03:19:28.311Z,4.13
2022-10-06T03:21:54.575Z,3.42
2022-10-06T03:24:20.931Z,3.95
2022-10-06T03:26:50.247Z,3.22
2022-10-06T03:29:16.561Z,4.10
2022-10-06T03:31:43.390Z,3.58
2022-10-06T03:34:09.729Z,3.10
2022-10-06T03:36:36.299Z,3.88
2022-10-06T03:39:03.796Z,3.20
2022-10-06T03:41:31.132Z,4.30
2022-10-06T03:43:58.362Z,4.45
2022-10-06T03:46:28.809Z,3.53
2022-10-06T03:48:57.125Z,4.28
2022-10-06T03:51:31.239Z,4.22
2022-10-06T03:53:58.047Z,5.00
2022-10-06T03:56:25.514Z,3.45
2022-10-06T03:58:52.958Z,4.32
2022-10-06T04:01:25.693Z,4.43
2022-10-06T04:03:53.530Z,3.75
2022-10-06T04:06:19.875Z,3.85
2022-10-06T04:08:47.065Z,3.60
2022-10-06T04:11:18.137Z,3.92
2022-10-06T04:13:45.224Z,5.15
2022-10-06T04:16:19.153Z,4.28
2022-10-06T04:18:46.483Z,4.07
2022-10-06T04:21:12.983Z,4.25
2022-10-06T04:23:39.487Z,4.00
2022-10-06T04:26:09.466Z,4.10
2022-10-06T04:28:39.476Z,3.80
2022-10-06T04:31:13.983Z,4.75
2022-10-06T04:33:40.278Z,3.80
2022-10-06T04:36:07.305Z,4.28
2022-10-06T04:38:34.729Z,4.63
2022-10-06T04:41:08.639Z,3.95
2022-10-06T04:43:35.530Z,4.45
2022-10-06T04:46:13.280Z,4.88
2022-10-06T04:48:52.270Z,4.50
2022-10-06T04:51:19.694Z,4.95
2022-10-06T04:53:46.262Z,4.60
2022-10-06T04:56:13.840Z,4.53
2022-10-06T04:58:41.356Z,4.85
2022-10-06T05:01:14.739Z,4.35
2022-10-06T05:03:41.123Z,4.15
2022-10-06T05:06:11.940Z,4.20
2022-10-06T05:08:38.485Z,5.20
2022-10-06T05:11:06.731Z,4.13
2022-10-06T05:13:33.042Z,5.57
2022-10-06T05:16:00.322Z,4.07
2022-10-06T05:18:27.646Z,4.32
2022-10-06T05:21:04.407Z,5.65
2022-10-06T05:23:34.173Z,4.28
2022-10-06T05:26:01.485Z,4.88
2022-10-06T05:28:29.582Z,4.80
2022-10-06T05:30:56.836Z,8.25
2022-10-06T05:33:23.992Z,5.45
2022-10-06T05:35:51.162Z,7.10
2022-10-06T05:38:17.432Z,5.97
2022-10-06T05:40:43.683Z,6.13
2022-10-06T05:43:09.954Z,5.03
2022-10-06T05:45:36.225Z,6.72
2022-10-06T05:48:02.494Z,4.50
2022-10-06T05:50:28.744Z,5.50
2022-10-06T05:52:55.155Z,7.43
2022-10-06T05:55:21.440Z,4.63
2022-10-06T05:57:47.692Z,5.47
2022-10-06T06:00:14.015Z,5.20
2022-10-06T06:02:40.342Z,5.63
2022-10-06T06:05:06.797Z,5.93
2022-10-06T06:07:33.030Z,5.85
2022-10-06T06:09:59.298Z,5.07
2022-10-06T06:12:25.557Z,5.43
2022-10-06T06:15:10.371Z,4.68
2022-10-06T06:17:36.688Z,4.87
2022-10-06T06:20:03.142Z,5.28
2022-10-06T06:22:29.403Z,4.53
2022-10-06T06:24:55.643Z,4.05
2022-10-06T06:27:21.907Z,4.78
2022-10-06T06:29:48.155Z,5.95
2022-10-06T06:32:14.443Z,4.38
2022-10-06T06:34:41.741Z,5.45
2022-10-06T06:37:14.171Z,4.53
2022-10-06T06:39:41.452Z,6.13
2022-10-06T06:42:08.529Z,4.68
2022-10-06T06:44:34.873Z,6.25
2022-10-06T06:47:01.162Z,4.35
2022-10-06T06:49:27.449Z,4.70
2022-10-06T06:51:54.431Z,5.55
2022-10-06T06:54:20.739Z,4.78
2022-10-06T06:56:49.066Z,5.82
2022-10-06T06:59:15.979Z,5.30
2022-10-06T07:01:47.298Z,5.22
2022-10-06T07:04:14.768Z,5.40
2022-10-06T07:06:41.421Z,4.63
2022-10-06T07:09:08.356Z,5.97
2022-10-06T07:11:39.120Z,4.38
2022-10-06T07:14:06.576Z,4.72
2022-10-06T07:16:51.857Z,4.22
2022-10-06T07:19:57.553Z,4.40
2022-10-06T07:22:46.838Z,4.95
2022-10-06T07:25:26.206Z,4.50
2022-10-06T07:27:53.409Z,4.93
2022-10-06T07:30:20.204Z,4.20
2022-10-06T07:32:47.164Z,3.95
2022-10-06T07:35:13.443Z,4.55
2022-10-06T07:37:40.563Z,4.22
2022-10-06T07:40:07.755Z,5.15
2022-10-06T07:42:49.960Z,5.68
2022-10-06T07:45:35.527Z,4.13
2022-10-06T07:48:02.302Z,5.47
2022-10-06T07:50:28.820Z,5.10
2022-10-06T07:52:55.095Z,4.18
2022-10-06T07:55:21.382Z,4.43
2022-10-06T07:57:49.151Z,5.13
2022-10-06T08:00:15.898Z,5.07
2022-10-06T08:02:42.528Z,5.50
2022-10-06T08:05:08.840Z,5.40
2022-10-06T08:07:35.243Z,5.15
2022-10-06T08:10:01.515Z,5.75
2022-10-06T08:12:33.726Z,4.75
2022-10-06T08:15:07.060Z,6.03
2022-10-06T08:17:37.325Z,4.88
2022-10-06T08:20:04.803Z,4.70
2022-10-06T08:22:31.134Z,4.50
2022-10-06T08:25:07.481Z,5.47
2022-10-06T08:27:34.934Z,4.93
2022-10-06T08:30:01.542Z,4.50
2022-10-06T08:32:27.840Z,4.38
2022-10-06T08:34:54.309Z,4.43
2022-10-06T08:37:23.726Z,3.58
2022-10-06T08:39:53.478Z,3.45
2022-10-06T08:42:28.366Z,5.50
2022-10-06T08:45:02.817Z,4.38
2022-10-06T08:47:30.304Z,4.53
2022-10-06T08:49:57.389Z,3.33
2022-10-06T08:52:45.121Z,3.28
2022-10-06T08:55:28.063Z,3.17
2022-10-06T08:58:03.404Z,4.15
2022-10-06T09:03:00.329Z,2.88
2022-10-06T09:05:29.524Z,4.53
2022-10-06T09:07:58.188Z,3.13
2022-10-06T09:10:42.507Z,3.25
2022-10-06T09:13:22.084Z,3.15
2022-10-06T09:15:50.906Z,3.05
2022-10-06T09:18:56.055Z,3.25
2022-10-06T09:21:19.803Z,3.28
2022-10-06T09:23:52.231Z,6.78
2022-10-06T09:26:22.122Z,3.40
2022-10-06T09:28:49.182Z,4.40
2022-10-06T09:31:21.524Z,4.00
2022-10-06T09:33:48.695Z,4.63
2022-10-06T09:36:15.767Z,3.50
2022-10-06T09:38:53.581Z,3.30
2022-10-06T09:41:25.125Z,3.05
2022-10-06T09:43:53.298Z,3.05
2022-10-06T09:46:21.323Z,3.42
2022-10-06T09:48:47.582Z,3.25
2022-10-06T09:51:15.242Z,3.67
2022-10-06T09:53:42.377Z,3.25
2022-10-06T09:56:14.453Z,3.33
2022-10-06T09:58:52.470Z,3.17
2022-10-06T10:01:22.828Z,2.50
2022-10-06T10:04:15.420Z,3.55
2022-10-06T10:06:38.313Z,4.07
2022-10-06T10:09:21.915Z,3.47
2022-10-06T10:12:26.577Z,3.60
2022-10-06T10:15:04.376Z,3.97
2022-10-06T10:17:44.659Z,3.40
2022-10-06T10:20:29.883Z,4.53
2022-10-06T10:22:57.262Z,3.50
2022-10-06T10:25:42.385Z,3.35
2022-10-06T10:28:08.716Z,3.42
2022-10-06T10:30:45.196Z,3.78
2022-10-06T10:33:34.751Z,3.28
2022-10-06T10:36:02.349Z,4.03
2022-10-06T10:38:29.130Z,3.55
2022-10-06T10:41:00.156Z,4.07
2022-10-06T10:43:32.482Z,2.53
2022-10-06T10:46:02.806Z,3.38
2022-10-06T10:48:41.443Z,3.35
2022-10-06T10:51:20.355Z,3.38
2022-10-06T10:53:51.436Z,3.30
2022-10-06T10:56:19.739Z,3.45
2022-10-06T10:58:48.435Z,3.20
2022-10-06T11:01:25.789Z,2.25
2022-10-06T11:04:02.439Z,2.80
2022-10-06T11:06:28.676Z,3.10
2022-10-06T11:08:54.970Z,2.25
2022-10-06T11:11:24.730Z,2.22
2022-10-06T11:13:52.621Z,2.88
2022-10-06T11:16:25.802Z,2.28
2022-10-06T11:18:55.089Z,3.00
2022-10-06T11:21:23.951Z,2.38
2022-10-06T11:23:54.476Z,2.95
2022-10-06T11:26:36.844Z,2.63
2022-10-06T11:29:03.066Z,2.60
2022-10-06T11:31:48.001Z,2.80
2022-10-06T11:34:14.346Z,2.97
2022-10-06T11:36:54.470Z,2.92
2022-10-06T11:39:20.703Z,2.67
2022-10-06T11:41:50.069Z,2.28
2022-10-06T11:44:26.256Z,2.83
2022-10-06T11:46:54.409Z,2.97
2022-10-06T11:49:30.028Z,2.33
2022-10-06T11:51:59.699Z,2.88
2022-10-06T11:54:35.854Z,2.60
2022-10-06T11:57:02.103Z,2.60
2022-10-06T11:59:30.272Z,2.75
2022-10-06T12:01:58.395Z,3.08
2022-10-06T12:04:26.330Z,2.92
2022-10-06T12:06:56.822Z,3.03
2022-10-06T12:09:25.959Z,2.90
2022-10-06T12:11:53.275Z,3.22
2022-10-06T12:16:00.120Z,3.13
2022-10-06T12:17:19.250Z,2.83
2022-10-06T12:19:53.200Z,2.42
2022-10-06T12:22:26.466Z,2.40
2022-10-06T12:24:58.281Z,2.80
2022-10-06T12:27:28.160Z,2.15
2022-10-06T12:30:13.215Z,2.60
2022-10-06T12:32:53.327Z,2.92
2022-10-06T12:35:24.898Z,3.33
2022-10-06T12:37:54.574Z,2.83
2022-10-06T12:40:48.905Z,2.90
2022-10-06T12:43:18.016Z,3.28
2022-10-06T12:45:47.097Z,3.58
2022-10-06T12:48:33.636Z,2.65
2022-10-06T12:51:09.689Z,3.22
2022-10-06T12:53:56.972Z,3.10
2022-10-06T12:56:28.279Z,3.05
2022-10-06T12:58:55.248Z,2.72
2022-10-06T13:01:22.487Z,2.47
2022-10-06T13:03:49.916Z,2.55
2022-10-06T13:06:20.742Z,3.13
2022-10-06T13:09:01.451Z,2.72
2022-10-06T13:11:28.193Z,3.55
2022-10-06T13:13:55.565Z,2.63
2022-10-06T13:16:23.278Z,2.65
2022-10-06T13:18:53.353Z,2.33
2022-10-06T13:21:19.787Z,2.53
2022-10-06T13:23:46.794Z,2.42
2022-10-06T13:26:13.043Z,2.60
2022-10-06T13:28:42.375Z,2.80
2022-10-06T13:31:14.968Z,2.40
2022-10-06T13:33:42.201Z,2.80
2022-10-06T13:36:09.888Z,2.72
2022-10-06T13:38:36.957Z,2.45
2022-10-06T13:41:06.357Z,2.53
2022-10-06T13:43:39.595Z,2.70
2022-10-06T13:46:07.688Z,2.70
2022-10-06T13:48:34.179Z,2.60
2022-10-06T13:51:03.341Z,2.75
2022-10-06T13:53:32.648Z,3.20
2022-10-06T13:55:58.944Z,2.97
2022-10-06T13:58:27.593Z,3.08
2022-10-06T14:00:58.061Z,2.63
2022-10-06T14:03:26.541Z,3.03
2022-10-06T14:06:05.010Z,2.95
2022-10-06T14:08:31.338Z,2.78
2022-10-06T14:11:03.907Z,2.78
2022-10-06T14:13:39.528Z,2.65
2022-10-06T14:16:07.858Z,2.78
2022-10-06T14:18:42.432Z,2.38
2022-10-06T14:21:27.314Z,2.35
2022-10-06T14:23:54.036Z,3.25
2022-10-06T14:26:24.723Z,3.17
2022-10-06T14:28:52.788Z,3.03
2022-10-06T14:31:23.112Z,3.25
2022-10-06T14:33:53.705Z,2.95
2022-10-06T14:36:27.571Z,3.28
2022-10-06T14:38:54.722Z,3.17
2022-10-06T14:41:27.332Z,2.63
2022-10-06T14:43:54.611Z,3.13
2022-10-06T14:46:21.140Z,2.72
2022-10-06T14:48:47.550Z,3.20
2022-10-06T14:51:13.907Z,2.90
2022-10-06T14:53:40.292Z,2.53
2022-10-06T14:56:08.838Z,2.80
2022-10-06T14:58:39.427Z,3.25
2022-10-06T15:01:07.291Z,3.25
2022-10-06T15:03:34.576Z,3.50
2022-10-06T15:06:23.539Z,3.60
2022-10-06T15:08:51.065Z,3.00
2022-10-06T15:11:18.829Z,2.65
2022-10-06T15:13:45.990Z,2.38
2022-10-06T15:16:12.870Z,3.00
2022-10-06T15:18:42.718Z,3.20
2022-10-06T15:21:09.595Z,3.85
2022-10-06T15:23:36.541Z,3.50
2022-10-06T15:26:21.686Z,3.33
2022-10-06T15:29:03.235Z,3.17
2022-10-06T15:31:37.144Z,3.25
2022-10-06T15:34:06.021Z,5.32
2022-10-06T15:36:33.726Z,3.53
2022-10-06T15:39:04.035Z,3.15
2022-10-06T15:41:30.299Z,3.67
2022-10-06T15:43:57.096Z,3.58
2022-10-06T15:46:28.414Z,3.08
2022-10-06T15:48:55.496Z,3.10
2022-10-06T15:51:22.484Z,3.60
2022-10-06T15:53:49.439Z,3.88
2022-10-06T15:56:17.275Z,4.30
2022-10-06T15:58:43.834Z,4.30
2022-10-06T16:01:24.155Z,3.45
2022-10-06T16:03:50.632Z,3.58
2022-10-06T16:06:17.507Z,3.30
2022-10-06T16:08:43.818Z,4.97
2022-10-06T16:11:10.195Z,4.78
2022-10-06T16:13:36.534Z,4.00
2022-10-06T16:16:02.793Z,4.20
2022-10-06T16:18:31.227Z,3.80
2022-10-06T16:20:57.581Z,3.80
2022-10-06T16:23:23.886Z,3.63
2022-10-06T16:25:50.359Z,3.83
2022-10-06T16:28:16.694Z,3.60
2022-10-06T16:30:43.021Z,3.22
2022-10-06T16:33:09.352Z,3.58
2022-10-06T16:35:35.602Z,3.22
2022-10-06T16:38:01.843Z,3.13
2022-10-06T16:40:28.094Z,3.67
2022-10-06T16:42:54.429Z,3.35
2022-10-06T16:45:20.680Z,3.35
2022-10-06T16:47:46.953Z,3.90
2022-10-06T16:50:13.259Z,4.53
2022-10-06T16:52:39.939Z,3.80
2022-10-06T16:55:08.139Z,3.60
2022-10-06T16:57:34.553Z,4.13
2022-10-06T17:00:00.854Z,3.65
2022-10-06T17:02:27.111Z,4.60
2022-10-06T17:04:53.370Z,4.65
2022-10-06T17:07:19.615Z,4.65
2022-10-06T17:10:01.481Z,3.10
2022-10-06T17:12:32.141Z,4.05
2022-10-06T17:14:58.463Z,3.75
2022-10-06T17:17:24.748Z,3.97
2022-10-06T17:19:51.160Z,4.72
2022-10-06T17:22:17.446Z,3.53
2022-10-06T17:24:43.731Z,3.40
2022-10-06T17:27:10.262Z,4.70
2022-10-06T17:29:36.526Z,4.47
2022-10-06T17:32:02.872Z,4.82
2022-10-06T17:34:33.390Z,4.13
2022-10-06T17:37:01.062Z,4.38
2022-10-06T17:39:27.351Z,4.25
2022-10-06T17:41:54.057Z,4.00
2022-10-06T17:44:26.726Z,4.95
2022-10-06T17:46:55.266Z,4.07
2022-10-06T17:49:21.964Z,4.53
2022-10-06T17:51:49.073Z,3.88
2022-10-06T17:54:18.818Z,3.72
2022-10-06T17:56:46.017Z,4.30
2022-10-06T17:59:22.632Z,4.50
2022-10-06T18:01:51.140Z,4.25
2022-10-06T18:04:18.341Z,4.22
2022-10-06T18:06:45.079Z,5.65
2022-10-06T18:09:12.151Z,5.03
2022-10-06T18:11:41.425Z,5.00
2022-10-06T18:14:12.328Z,4.10
2022-10-06T18:16:41.704Z,4.03
2022-10-06T18:19:12.395Z,3.53
2022-10-06T18:21:39.735Z,4.60
2022-10-06T18:24:07.651Z,4.25
2022-10-06T18:26:38.322Z,4.20
2022-10-06T18:29:05.075Z,4.40
2022-10-06T18:31:31.383Z,4.45
2022-10-06T18:36:46.417Z,3.90
2022-10-06T18:39:13.141Z,5.30
2022-10-06T18:41:40.867Z,4.75
2022-10-06T18:44:07.943Z,3.83
2022-10-06T18:46:53.302Z,4.13
2022-10-06T18:49:20.980Z,4.70
2022-10-06T18:51:47.271Z,3.45
2022-10-06T18:54:17.778Z,3.85
2022-10-06T18:56:47.603Z,4.93
2022-10-06T18:59:14.134Z,4.63
2022-10-06T19:01:41.777Z,4.05
2022-10-06T19:04:09.975Z,3.92
2022-10-06T19:06:37.440Z,3.80
2022-10-06T19:09:04.989Z,4.60
2022-10-06T19:11:52.249Z,5.07
2022-10-06T19:14:26.178Z,4.50
2022-10-06T19:16:56.549Z,4.53
2022-10-06T19:19:23.291Z,3.15
2022-10-06T19:21:55.010Z,3.70
2022-10-06T19:24:21.611Z,4.28
2022-10-06T19:26:49.121Z,4.45
2022-10-06T19:29:15.655Z,4.88
2022-10-06T19:31:43.558Z,5.07
2022-10-06T19:34:11.723Z,3.63
2022-10-06T19:36:38.854Z,4.45
2022-10-06T19:39:06.523Z,4.63
2022-10-06T19:41:51.726Z,4.95
2022-10-06T19:44:18.170Z,4.40
2022-10-06T19:46:44.419Z,4.90
2022-10-06T19:49:11.315Z,4.30
2022-10-06T19:51:41.379Z,3.60
2022-10-06T19:54:11.439Z,3.70
2022-10-06T19:56:39.600Z,5.10
2022-10-06T19:59:06.198Z,5.10
2022-10-06T20:01:32.995Z,4.00
2022-10-06T20:03:59.518Z,3.60
2022-10-06T20:06:26.445Z,3.90
2022-10-06T20:08:52.866Z,3.47
2022-10-06T20:11:21.211Z,3.58
2022-10-06T20:13:48.049Z,5.47
2022-10-06T20:16:17.202Z,5.93
2022-10-06T20:18:44.827Z,4.53
2022-10-06T20:21:14.152Z,4.15
2022-10-06T20:23:40.706Z,4.20
2022-10-06T20:26:07.922Z,4.95
2022-10-06T20:28:34.238Z,5.95
2022-10-06T20:31:00.653Z,4.97
2022-10-06T20:33:27.087Z,5.15
2022-10-06T20:35:53.487Z,6.68
2022-10-06T20:38:39.710Z,5.63
2022-10-06T20:41:05.997Z,4.38
2022-10-06T20:43:33.452Z,5.82
2022-10-06T20:45:59.795Z,5.22
2022-10-06T20:48:28.755Z,4.80
2022-10-06T20:50:55.050Z,5.75
2022-10-06T20:53:21.295Z,5.10
2022-10-06T20:55:51.187Z,5.38
2022-10-06T20:58:17.458Z,4.95
2022-10-06T21:00:43.714Z,5.38
2022-10-06T21:03:09.987Z,6.22
2022-10-06T21:05:36.280Z,5.75
2022-10-06T21:08:02.541Z,5.65
2022-10-06T21:10:28.781Z,5.00
2022-10-06T21:12:55.757Z,5.68
2022-10-06T21:15:22.206Z,5.43
2022-10-06T21:17:48.850Z,5.20
2022-10-06T21:20:15.119Z,6.07
2022-10-06T21:22:41.524Z,5.72
2022-10-06T21:25:07.982Z,5.47
2022-10-06T21:27:34.257Z,6.20
2022-10-06T21:30:00.517Z,5.93
2022-10-06T21:32:27.320Z,5.55
2022-10-06T21:34:55.783Z,5.50
2022-10-06T21:37:22.030Z,6.68
2022-10-06T21:39:48.261Z,4.88
2022-10-06T21:42:14.553Z,6.53
2022-10-06T21:44:40.784Z,5.05
2022-10-06T21:47:07.079Z,6.38
2022-10-06T21:49:33.495Z,5.78
2022-10-06T21:52:04.631Z,5.45
2022-10-06T21:54:31.222Z,5.07
2022-10-06T21:56:58.998Z,5.57
2022-10-06T21:59:25.295Z,5.43
2022-10-06T22:01:51.634Z,5.15
2022-10-06T22:04:18.243Z,6.18
2022-10-06T22:06:45.073Z,5.55
2022-10-06T22:09:15.594Z,5.10
2022-10-06T22:11:41.865Z,4.57
2022-10-06T22:14:10.255Z,7.22
2022-10-06T22:16:36.780Z,6.13
2022-10-06T22:19:03.842Z,5.03
2022-10-06T22:21:31.237Z,6.60
2022-10-06T22:23:58.773Z,5.55
2022-10-06T22:26:25.659Z,6.35
2022-10-06T22:28:52.873Z,6.32
2022-10-06T22:31:24.791Z,6.07
2022-10-06T22:33:56.132Z,6.97
2022-10-06T22:36:22.516Z,6.88
2022-10-06T22:38:48.768Z,6.55
2022-10-06T22:41:15.354Z,5.35
2022-10-06T22:43:41.623Z,5.95
2022-10-06T22:46:08.385Z,6.05
2022-10-06T22:48:34.936Z,5.95
2022-10-06T22:51:01.211Z,7.45
2022-10-06T22:53:31.285Z,6.60
2022-10-06T22:55:58.436Z,6.28
2022-10-06T22:58:24.908Z,6.07
2022-10-06T23:00:51.269Z,5.90
2022-10-06T23:03:18.364Z,6.43
2022-10-06T23:05:54.647Z,6.70
2022-10-06T23:08:20.903Z,5.65
2022-10-06T23:10:47.162Z,5.88
2022-10-06T23:13:13.427Z,7.90
2022-10-06T23:15:39.685Z,6.78
2022-10-06T23:18:08.069Z,7.13
2022-10-06T23:20:34.508Z,5.93
2022-10-06T23:23:00.777Z,6.78
2022-10-06T23:25:27.444Z,6.45
2022-10-06T23:27:53.737Z,5.65
2022-10-06T23:30:20.165Z,4.95
2022-10-06T23:32:46.417Z,6.07
2022-10-06T23:35:12.669Z,6.43
2022-10-06T23:37:38.918Z,6.57
2022-10-06T23:40:05.988Z,6.05
2022-10-06T23:42:32.444Z,5.60
2022-10-06T23:44:58.681Z,5.85
2022-10-06T23:47:25.030Z,6.18
2022-10-06T23:49:51.308Z,6.38
2022-10-06T23:52:17.581Z,8.60
2022-10-06T23:54:43.922Z,6.07
2022-10-06T23:57:10.164Z,5.50
2022-10-06T23:59:36.430Z,5.80
